createdAt,value
2022-09-15T10:21:16.402Z,78.42
2022-09-15T10:22:16.372Z,79.39
2022-09-15T10:23:17.480Z,79.49
2022-09-15T10:24:18.175Z,79.60
2022-09-15T10:25:18.475Z,77.08
2022-09-15T10:26:17.482Z,76.97
2022-09-15T10:27:17.437Z,77.84
2022-09-15T10:28:17.430Z,78.05
2022-09-15T10:29:17.424Z,78.15
2022-09-15T10:30:17.433Z,76.70
2022-09-15T10:31:17.497Z,77.44
2022-09-15T10:32:19.755Z,77.64
2022-09-15T10:33:17.375Z,76.94
2022-09-15T10:34:17.380Z,76.03
2022-09-15T10:35:17.401Z,75.83
2022-09-15T10:36:17.347Z,74.93
2022-09-15T10:37:17.340Z,75.26
2022-09-15T10:38:17.325Z,75.76
2022-09-15T10:39:17.315Z,75.67
2022-09-15T10:41:01.792Z,76.31
2022-09-15T10:42:01.765Z,75.10
2022-09-15T10:43:02.922Z,75.70
2022-09-15T10:44:02.865Z,75.50
2022-09-15T10:45:02.866Z,73.79
2022-09-15T10:46:02.919Z,74.79
2022-09-15T10:47:02.836Z,74.19
2022-09-15T10:48:02.819Z,74.63
2022-09-15T10:49:02.810Z,75.74
2022-09-15T10:50:02.827Z,75.47
2022-09-15T10:51:02.799Z,75.27
2022-09-15T10:52:02.794Z,75.81
2022-09-15T10:53:02.791Z,76.65
2022-09-15T10:54:02.781Z,77.56
2022-09-15T10:55:02.789Z,78.57
2022-09-15T10:56:02.742Z,77.66
2022-09-15T10:57:02.751Z,78.57
2022-09-15T10:58:02.719Z,77.97
2022-09-15T10:59:02.708Z,78.23
2022-09-15T11:00:02.699Z,78.33
2022-09-15T11:01:02.780Z,77.73
2022-09-15T11:02:02.736Z,77.56
2022-09-15T11:03:03.680Z,77.12
2022-09-15T11:04:02.656Z,77.73
2022-09-15T11:05:02.669Z,77.06
2022-09-15T11:06:02.659Z,77.56
2022-09-15T11:07:02.626Z,76.92
2022-09-15T11:08:02.619Z,77.32
2022-09-15T11:09:02.621Z,77.02
2022-09-15T11:10:02.612Z,78.13
2022-09-15T11:11:02.633Z,76.72
2022-09-15T11:12:03.116Z,76.82
2022-09-15T11:13:02.609Z,77.12
2022-09-15T11:14:02.610Z,76.62
2022-09-15T11:15:02.557Z,77.12
2022-09-15T11:16:02.603Z,76.72
2022-09-15T11:17:02.574Z,75.91
2022-09-15T11:18:02.615Z,76.62
2022-09-15T11:19:02.523Z,77.19
2022-09-15T11:20:02.533Z,76.95
2022-09-15T11:21:02.521Z,76.95
2022-09-15T11:22:02.504Z,75.43
2022-09-15T11:23:03.210Z,75.74
2022-09-15T11:24:02.467Z,75.87
2022-09-15T11:25:03.054Z,76.34
2022-09-15T11:26:02.455Z,77.15
2022-09-15T11:27:02.586Z,77.59
2022-09-15T11:28:02.420Z,76.75
2022-09-15T11:29:02.874Z,75.77
2022-09-15T11:30:02.412Z,75.67
2022-09-15T11:31:02.468Z,76.95
2022-09-15T11:33:02.384Z,76.98
2022-09-15T11:34:02.389Z,77.55
2022-09-15T11:35:02.347Z,76.34
2022-09-15T11:36:02.355Z,75.77
2022-09-15T11:37:02.331Z,76.68
2022-09-15T11:38:02.333Z,76.88
2022-09-15T11:39:02.300Z,77.45
2022-09-15T11:40:02.377Z,76.84
2022-09-15T11:41:02.292Z,76.98
2022-09-15T11:42:02.286Z,75.37
2022-09-15T11:43:02.280Z,76.98
2022-09-15T11:44:02.283Z,76.01
2022-09-15T11:45:02.289Z,76.92
2022-09-15T11:46:02.313Z,75.81
2022-09-15T11:47:02.274Z,74.49
2022-09-15T11:48:02.259Z,74.29
2022-09-15T11:49:02.231Z,72.38
2022-09-15T11:50:02.229Z,72.78
2022-09-15T11:51:02.233Z,73.25
2022-09-15T11:52:02.226Z,73.25
2022-09-15T11:53:02.193Z,73.01
2022-09-15T11:54:02.178Z,72.17
2022-09-15T11:55:02.189Z,72.74
2022-09-15T11:56:02.191Z,73.18
2022-09-15T11:57:02.160Z,72.47
2022-09-15T11:58:02.146Z,72.64
2022-09-15T11:59:02.134Z,71.73
2022-09-15T12:00:02.125Z,73.18
2022-09-15T12:01:02.122Z,71.50
2022-09-15T12:02:02.188Z,70.56
2022-09-15T12:03:02.113Z,70.76
2022-09-15T12:04:02.069Z,72.74
2022-09-15T12:05:02.045Z,72.91
2022-09-15T12:06:02.091Z,71.77
2022-09-15T12:07:02.130Z,71.47
2022-09-15T12:08:02.168Z,67.64
2022-09-15T12:09:02.010Z,67.03
2022-09-15T12:10:01.989Z,68.38
2022-09-15T12:11:02.051Z,68.78
2022-09-15T12:12:02.012Z,69.01
2022-09-15T12:13:02.089Z,68.28
2022-09-15T12:14:02.012Z,66.67
2022-09-15T12:15:01.977Z,67.07
2022-09-15T12:16:01.946Z,67.57
2022-09-15T12:17:01.941Z,67.47
2022-09-15T12:18:06.610Z,66.90
2022-09-15T12:19:02.909Z,68.04
2022-09-15T12:20:02.413Z,67.13
2022-09-15T12:21:01.882Z,68.04
2022-09-15T12:22:01.882Z,68.01
2022-09-15T12:23:01.857Z,69.12
2022-09-15T12:24:01.845Z,67.37
2022-09-15T12:25:01.905Z,66.63
2022-09-15T12:26:01.876Z,66.63
2022-09-15T12:27:01.908Z,66.20
2022-09-15T12:28:01.861Z,65.80
2022-09-15T12:29:01.894Z,64.69
2022-09-15T12:30:01.861Z,67.74
2022-09-15T12:31:01.905Z,67.21
2022-09-15T12:32:01.855Z,65.90
2022-09-15T12:33:01.798Z,67.81
2022-09-15T12:34:01.756Z,65.80
2022-09-15T12:35:01.741Z,64.72
2022-09-15T12:36:01.736Z,65.22
2022-09-15T12:37:01.735Z,65.96
2022-09-15T12:38:01.712Z,68.41
2022-09-15T12:39:01.704Z,66.71
2022-09-15T12:40:01.803Z,66.64
2022-09-15T12:41:01.673Z,65.77
2022-09-15T12:42:01.693Z,67.58
2022-09-15T12:43:01.650Z,66.30
2022-09-15T12:44:01.644Z,66.71
2022-09-15T12:45:01.641Z,66.13
2022-09-15T12:46:01.702Z,66.71
2022-09-15T12:47:01.637Z,66.74
2022-09-15T12:48:01.600Z,64.32
2022-09-15T12:49:01.599Z,63.18
2022-09-15T12:50:01.580Z,62.85
2022-09-15T12:51:01.582Z,62.72
2022-09-15T12:52:01.595Z,59.80
2022-09-15T12:53:01.561Z,60.51
2022-09-15T12:54:01.543Z,60.03
2022-09-15T12:55:01.539Z,59.43
2022-09-15T12:56:01.529Z,60.11
2022-09-15T12:57:01.536Z,60.84
2022-09-15T12:58:01.543Z,58.73
2022-09-15T12:59:05.898Z,58.12
2022-09-15T13:00:03.554Z,59.83
2022-09-15T13:01:17.616Z,60.13
2022-09-15T13:02:03.576Z,58.22
2022-09-15T13:03:01.506Z,58.35
2022-09-15T13:04:01.722Z,58.95
2022-09-15T13:05:01.446Z,57.75
2022-09-15T13:06:01.425Z,60.49
2022-09-15T13:07:01.438Z,59.39
2022-09-15T13:08:01.405Z,58.48
2022-09-15T13:09:01.390Z,60.06
2022-09-15T13:10:01.380Z,60.53
2022-09-15T13:11:01.380Z,59.41
2022-09-15T13:12:01.366Z,60.00
2022-09-15T13:13:01.393Z,58.73
2022-09-15T13:14:01.342Z,58.93
2022-09-15T13:15:01.332Z,59.70
2022-09-15T13:16:01.395Z,58.20
2022-09-15T13:17:01.313Z,57.50
2022-09-15T13:18:01.334Z,59.70
2022-09-15T13:19:01.301Z,58.29
2022-09-15T13:20:01.290Z,57.26
2022-09-15T13:21:01.283Z,58.37
2022-09-15T13:22:01.270Z,57.37
2022-09-15T13:23:01.287Z,56.93
2022-09-15T13:24:01.249Z,57.44
2022-09-15T13:25:02.047Z,57.14
2022-09-15T13:26:36.969Z,56.54
2022-09-15T13:27:01.229Z,56.86
2022-09-15T13:28:01.267Z,57.06
2022-09-15T13:29:01.249Z,58.60
2022-09-15T13:30:01.260Z,57.79
2022-09-15T13:31:01.277Z,58.70
2022-09-15T13:32:01.212Z,58.90
2022-09-15T13:33:01.220Z,58.62
2022-09-15T13:35:15.185Z,58.22
2022-09-15T13:36:10.955Z,58.42
2022-09-15T13:38:21.867Z,59.56
2022-09-15T13:39:13.150Z,59.43
2022-09-15T13:41:21.597Z,60.24
2022-09-15T13:42:21.719Z,59.13
2022-09-15T13:45:31.970Z,58.55
2022-09-15T13:46:32.009Z,60.03
2022-09-15T13:47:33.105Z,58.55
2022-09-15T13:48:33.074Z,60.24
2022-09-15T13:49:33.063Z,60.47
2022-09-15T13:50:33.097Z,60.47
2022-09-15T13:51:33.135Z,60.97
2022-09-15T13:52:33.173Z,60.49
2022-09-15T13:53:33.186Z,61.00
